createdAt,value
2017-07-16T00:01:49.493Z,63.72
2017-07-16T00:04:18.802Z,63.77
2017-07-16T00:06:47.895Z,63.55
2017-07-16T00:09:16.938Z,63.94
2017-07-16T00:11:46.751Z,63.44
2017-07-16T00:14:16.588Z,63.25
2017-07-16T00:16:46.491Z,63.50
2017-07-16T00:19:16.322Z,63.45
2017-07-16T00:21:45.386Z,63.22
2017-07-16T00:24:15.264Z,63.57
2017-07-16T00:26:44.329Z,63.52
2017-07-16T00:29:13.385Z,63.83
2017-07-16T00:31:43.227Z,64.01
2017-07-16T00:34:12.300Z,63.75
2017-07-16T00:36:42.129Z,63.51
2017-07-16T00:39:11.861Z,63.57
2017-07-16T00:41:40.917Z,63.68
2017-07-16T00:44:10.757Z,63.89
2017-07-16T00:46:39.832Z,63.68
2017-07-16T00:49:09.648Z,63.97
2017-07-16T00:51:39.676Z,63.59
2017-07-16T00:54:08.732Z,63.90
2017-07-16T00:56:37.800Z,63.73
2017-07-16T00:59:06.868Z,63.68
2017-07-16T01:01:35.956Z,64.06
2017-07-16T01:04:05.006Z,63.81
2017-07-16T01:06:34.057Z,64.24
2017-07-16T01:09:03.149Z,64.00
2017-07-16T01:11:32.219Z,64.23
2017-07-16T01:14:01.277Z,64.44
2017-07-16T01:16:30.341Z,64.00
2017-07-16T01:18:59.416Z,64.25
2017-07-16T01:21:29.252Z,64.36
2017-07-16T01:23:58.307Z,64.10
2017-07-16T01:26:28.130Z,64.76
2017-07-16T01:28:57.960Z,64.16
2017-07-16T01:31:27.002Z,64.29
2017-07-16T01:33:56.057Z,64.15
2017-07-16T01:36:25.139Z,64.02
2017-07-16T01:38:54.980Z,64.09
2017-07-16T01:41:24.032Z,64.50
2017-07-16T01:43:53.176Z,64.30
2017-07-16T01:46:22.255Z,64.55
2017-07-16T01:48:51.324Z,64.56
2017-07-16T01:51:20.421Z,64.50
2017-07-16T01:53:49.533Z,64.56
2017-07-16T01:56:18.614Z,64.68
2017-07-16T01:58:48.513Z,64.43
2017-07-16T02:01:17.548Z,64.45
2017-07-16T02:03:46.657Z,64.69
2017-07-16T02:06:15.776Z,64.66
2017-07-16T02:08:44.829Z,64.65
2017-07-16T02:11:13.912Z,64.29
2017-07-16T02:13:42.984Z,64.78
2017-07-16T02:16:12.804Z,64.37
2017-07-16T02:18:42.649Z,64.33
2017-07-16T02:21:11.749Z,64.29
2017-07-16T02:23:40.805Z,63.92
2017-07-16T02:26:10.657Z,63.94
2017-07-16T02:28:39.688Z,63.85
2017-07-16T02:31:09.308Z,63.99
2017-07-16T02:33:38.513Z,64.03
2017-07-16T02:36:08.362Z,64.26
2017-07-16T02:38:37.440Z,64.13
2017-07-16T02:41:06.503Z,63.88
2017-07-16T02:43:35.654Z,63.96
2017-07-16T02:46:04.820Z,64.11
2017-07-16T02:48:34.622Z,63.77
2017-07-16T02:51:04.441Z,64.15
2017-07-16T02:53:34.266Z,63.92
2017-07-16T02:56:03.920Z,63.83
2017-07-16T02:58:32.993Z,63.75
2017-07-16T03:01:02.345Z,63.64
2017-07-16T03:03:31.387Z,64.10
2017-07-16T03:06:00.463Z,63.91
2017-07-16T03:08:29.521Z,64.54
2017-07-16T03:10:58.593Z,64.71
2017-07-16T03:13:27.684Z,64.63
2017-07-16T03:15:56.745Z,64.74
2017-07-16T03:18:25.833Z,64.69
2017-07-16T03:20:54.917Z,65.29
2017-07-16T03:23:24.732Z,64.85
2017-07-16T03:25:54.565Z,64.65
2017-07-16T03:28:23.644Z,64.82
2017-07-16T03:30:53.465Z,64.72
2017-07-16T03:33:22.534Z,64.52
2017-07-16T03:35:51.605Z,64.43
2017-07-16T03:38:20.689Z,64.66
2017-07-16T03:40:50.197Z,64.64
2017-07-16T03:43:19.249Z,64.78
2017-07-16T03:45:49.102Z,65.33
2017-07-16T03:48:18.139Z,65.02
2017-07-16T03:50:48.211Z,65.23
2017-07-16T03:53:17.355Z,65.51
2017-07-16T03:55:46.389Z,65.62
2017-07-16T03:58:15.467Z,65.68
2017-07-16T04:00:45.304Z,65.75
2017-07-16T04:03:14.397Z,65.55
2017-07-16T04:05:43.433Z,65.91
2017-07-16T04:08:12.652Z,65.99
2017-07-16T04:10:42.478Z,65.61
2017-07-16T04:13:12.693Z,65.70
2017-07-16T04:15:41.765Z,65.70
2017-07-16T04:18:10.829Z,65.87
2017-07-16T04:20:39.915Z,66.12
2017-07-16T04:23:09.004Z,66.12
2017-07-16T04:25:38.056Z,66.38
2017-07-16T04:28:07.869Z,66.72
2017-07-16T04:30:36.937Z,66.49
2017-07-16T04:33:05.984Z,66.46
2017-07-16T04:35:35.045Z,66.46
2017-07-16T04:38:04.121Z,66.79
2017-07-16T04:40:33.151Z,66.38
2017-07-16T04:43:03.023Z,66.58
2017-07-16T04:45:32.955Z,66.75
2017-07-16T04:48:02.056Z,66.89
2017-07-16T04:50:31.096Z,66.83
2017-07-16T04:53:00.131Z,66.56
2017-07-16T04:55:29.242Z,66.55
2017-07-16T04:57:58.263Z,66.62
2017-07-16T05:00:27.353Z,66.96
2017-07-16T05:02:57.198Z,66.90
2017-07-16T05:05:26.253Z,67.11
2017-07-16T05:07:56.095Z,67.57
2017-07-16T05:10:25.996Z,67.50
2017-07-16T05:12:55.078Z,67.84
2017-07-16T05:15:24.118Z,67.62
2017-07-16T05:17:53.188Z,67.50
2017-07-16T05:20:22.265Z,68.45
2017-07-16T05:22:52.100Z,68.43
2017-07-16T05:25:21.177Z,68.45
2017-07-16T05:27:51.016Z,68.55
2017-07-16T05:30:20.089Z,68.68
2017-07-16T05:32:49.920Z,69.31
2017-07-16T05:35:18.989Z,68.90
2017-07-16T05:37:48.800Z,68.78
2017-07-16T05:40:17.913Z,68.53
2017-07-16T05:42:46.944Z,68.51
2017-07-16T05:45:16.005Z,68.25
2017-07-16T05:47:45.097Z,68.17
2017-07-16T05:50:14.920Z,67.90
2017-07-16T05:52:44.167Z,68.15
2017-07-16T05:55:13.292Z,68.02
2017-07-16T05:57:42.374Z,67.81
2017-07-16T06:00:11.526Z,68.23
2017-07-16T06:02:40.551Z,68.15
2017-07-16T06:05:09.644Z,68.28
2017-07-16T06:07:38.733Z,68.69
2017-07-16T06:10:07.840Z,68.94
2017-07-16T06:12:36.922Z,69.41
2017-07-16T06:15:05.985Z,69.73
2017-07-16T06:17:35.038Z,68.89
2017-07-16T06:20:04.125Z,69.01
2017-07-16T06:22:33.264Z,68.57
2017-07-16T06:25:02.327Z,68.56
2017-07-16T06:27:31.377Z,68.80
2017-07-16T06:30:00.432Z,69.44
2017-07-16T06:32:29.479Z,69.68
2017-07-16T06:34:58.547Z,70.17
2017-07-16T06:37:27.602Z,70.18
2017-07-16T06:39:56.868Z,70.38
2017-07-16T06:42:25.956Z,70.67
2017-07-16T06:44:55.025Z,70.69
2017-07-16T06:47:24.076Z,70.69
2017-07-16T06:49:53.146Z,70.86
2017-07-16T06:52:22.222Z,70.59
2017-07-16T06:54:51.271Z,70.53
2017-07-16T06:57:21.203Z,70.96
2017-07-16T06:59:51.032Z,70.70
2017-07-16T07:02:20.118Z,70.54
2017-07-16T07:04:49.217Z,70.57
2017-07-16T07:07:19.057Z,70.69
2017-07-16T07:09:48.129Z,70.94
2017-07-16T07:12:17.177Z,70.82
2017-07-16T07:14:46.285Z,71.07
2017-07-16T07:17:15.364Z,71.44
2017-07-16T07:19:44.653Z,71.59
2017-07-16T07:22:13.760Z,71.56
2017-07-16T07:24:42.834Z,71.84
2017-07-16T07:27:12.551Z,71.74
2017-07-16T07:29:41.637Z,71.85
2017-07-16T07:32:10.694Z,71.56
2017-07-16T07:34:40.532Z,71.41
2017-07-16T07:37:09.675Z,71.21
2017-07-16T07:39:38.748Z,71.52
2017-07-16T07:42:07.921Z,71.54
2017-07-16T07:44:37.009Z,71.08
2017-07-16T07:47:06.117Z,71.48
2017-07-16T07:49:35.189Z,70.98
2017-07-16T07:52:04.463Z,70.61
2017-07-16T07:54:33.508Z,70.45
2017-07-16T07:57:02.560Z,70.96
2017-07-16T07:59:31.619Z,70.28
2017-07-16T08:02:00.688Z,70.29
2017-07-16T08:04:29.778Z,70.12
2017-07-16T08:06:58.834Z,70.33
2017-07-16T08:09:27.887Z,70.45
2017-07-16T08:11:56.968Z,70.09
2017-07-16T08:14:26.031Z,69.97
2017-07-16T08:16:55.877Z,70.11
2017-07-16T08:19:24.956Z,70.35
2017-07-16T08:21:54.027Z,70.59
2017-07-16T08:24:23.080Z,70.91
2017-07-16T08:26:52.149Z,70.95
2017-07-16T08:29:21.227Z,70.74
2017-07-16T08:31:51.077Z,70.57
2017-07-16T08:34:20.149Z,71.10
2017-07-16T08:36:49.975Z,70.91
2017-07-16T08:39:19.002Z,70.67
2017-07-16T08:41:48.073Z,70.49
2017-07-16T08:44:17.132Z,70.47
2017-07-16T08:46:46.981Z,71.41
2017-07-16T08:49:16.056Z,71.73
2017-07-16T08:51:45.108Z,71.39
2017-07-16T08:54:14.194Z,71.50
2017-07-16T08:56:43.296Z,71.16
2017-07-16T08:59:12.377Z,70.86
2017-07-16T09:01:41.420Z,71.36
2017-07-16T09:04:10.508Z,71.50
2017-07-16T09:06:39.585Z,70.34
2017-07-16T09:09:08.661Z,69.29
2017-07-16T09:11:37.727Z,69.21
2017-07-16T09:14:06.781Z,69.10
2017-07-16T09:16:36.618Z,69.19
2017-07-16T09:19:05.666Z,68.74
2017-07-16T09:21:34.762Z,68.64
2017-07-16T09:24:03.856Z,68.78
2017-07-16T09:26:33.555Z,68.70
2017-07-16T09:29:02.664Z,68.77
2017-07-16T09:31:31.778Z,68.85
2017-07-16T09:34:01.622Z,68.56
2017-07-16T09:36:30.685Z,69.02
2017-07-16T09:38:59.875Z,69.32
2017-07-16T09:41:29.256Z,69.40
2017-07-16T09:43:58.794Z,69.37
2017-07-16T09:46:28.611Z,69.05
2017-07-16T09:48:58.460Z,68.39
2017-07-16T09:51:27.527Z,68.44
2017-07-16T09:53:56.643Z,68.33
2017-07-16T09:56:25.748Z,68.26
2017-07-16T09:58:54.815Z,68.48
2017-07-16T10:01:24.673Z,68.04
2017-07-16T10:03:53.732Z,67.50
2017-07-16T10:06:22.790Z,67.43
2017-07-16T10:08:51.845Z,67.11
2017-07-16T10:11:20.913Z,66.71
2017-07-16T10:13:50.014Z,66.14
2017-07-16T10:16:19.096Z,65.87
2017-07-16T10:18:48.905Z,66.56
2017-07-16T10:21:17.980Z,66.25
2017-07-16T10:23:47.038Z,65.65
2017-07-16T10:26:16.936Z,64.79
2017-07-16T10:28:46.038Z,64.82
2017-07-16T10:31:15.088Z,64.21
2017-07-16T10:33:44.155Z,65.02
2017-07-16T10:36:13.252Z,64.96
2017-07-16T10:38:42.318Z,63.98
2017-07-16T10:41:11.428Z,64.66
2017-07-16T10:43:40.512Z,64.87
2017-07-16T10:46:09.619Z,65.58
2017-07-16T10:48:38.674Z,65.09
2017-07-16T10:51:08.490Z,65.68
2017-07-16T10:53:37.576Z,65.43
2017-07-16T10:56:06.644Z,65.73
2017-07-16T10:58:35.709Z,64.51
2017-07-16T11:01:04.782Z,64.58
2017-07-16T11:03:33.848Z,65.58
2017-07-16T11:06:03.672Z,65.87
2017-07-16T11:08:33.517Z,64.97
2017-07-16T11:11:02.589Z,65.67
2017-07-16T11:13:31.669Z,65.05
2017-07-16T11:16:02.266Z,65.41
2017-07-16T11:18:32.344Z,64.89
2017-07-16T11:21:01.470Z,65.68
2017-07-16T11:23:30.519Z,66.03
2017-07-16T11:25:59.578Z,66.10
2017-07-16T11:28:28.691Z,66.04
2017-07-16T11:30:58.516Z,65.37
2017-07-16T11:33:28.726Z,65.92
2017-07-16T11:35:57.798Z,66.02
2017-07-16T11:38:26.852Z,66.54
2017-07-16T11:40:55.953Z,66.50
2017-07-16T11:43:25.030Z,66.08
2017-07-16T11:45:54.076Z,66.74
2017-07-16T11:48:23.617Z,66.62
2017-07-16T11:50:52.664Z,66.55
2017-07-16T11:53:22.735Z,66.90
2017-07-16T11:55:51.781Z,66.96
2017-07-16T11:58:20.874Z,67.16
2017-07-16T12:00:49.962Z,66.97
2017-07-16T12:03:19.063Z,67.03
2017-07-16T12:05:48.161Z,66.97
2017-07-16T12:08:17.221Z,67.06
2017-07-16T12:10:46.292Z,66.55
2017-07-16T12:13:16.169Z,66.88
2017-07-16T12:15:45.228Z,66.81
2017-07-16T12:18:14.308Z,67.62
2017-07-16T12:20:44.139Z,67.62
2017-07-16T12:23:13.263Z,68.10
2017-07-16T12:25:42.528Z,68.02
2017-07-16T12:28:11.659Z,68.48
2017-07-16T12:30:40.697Z,67.47
2017-07-16T12:33:10.571Z,67.67
2017-07-16T12:35:39.666Z,67.64
2017-07-16T12:38:08.895Z,67.30
2017-07-16T12:40:37.949Z,66.14
2017-07-16T12:43:07.081Z,67.33
2017-07-16T12:45:36.440Z,67.66
2017-07-16T12:48:05.481Z,66.81
2017-07-16T12:50:35.347Z,66.72
2017-07-16T12:53:04.437Z,66.63
2017-07-16T12:55:33.486Z,67.66
2017-07-16T12:58:02.569Z,67.20
2017-07-16T13:00:31.664Z,67.41
2017-07-16T13:03:00.785Z,67.33
2017-07-16T13:05:29.836Z,67.72
2017-07-16T13:07:58.904Z,67.63
2017-07-16T13:10:27.957Z,67.81
2017-07-16T13:12:57.804Z,66.51
2017-07-16T13:15:27.234Z,66.85
2017-07-16T13:17:56.290Z,66.85
2017-07-16T13:20:25.631Z,66.78
2017-07-16T13:22:54.700Z,67.31
2017-07-16T13:25:23.761Z,66.84
2017-07-16T13:27:52.833Z,65.19
2017-07-16T13:30:21.895Z,65.12
2017-07-16T13:32:50.977Z,65.70
2017-07-16T13:35:20.091Z,65.14
2017-07-16T13:37:49.166Z,65.00
2017-07-16T13:40:18.263Z,64.69
2017-07-16T13:42:47.376Z,65.03
2017-07-16T13:45:16.680Z,64.41
2017-07-16T13:47:45.775Z,63.81
2017-07-16T13:50:14.878Z,64.16
2017-07-16T13:52:43.928Z,63.60
2017-07-16T13:55:13.768Z,63.93
2017-07-16T13:57:42.836Z,63.38
2017-07-16T14:00:12.739Z,63.48
2017-07-16T14:02:41.795Z,62.97
2017-07-16T14:05:10.840Z,62.98
2017-07-16T14:07:40.709Z,62.73
2017-07-16T14:10:09.821Z,61.29
2017-07-16T14:12:38.901Z,62.04
2017-07-16T14:15:07.999Z,62.06
2017-07-16T14:17:37.038Z,62.69
2017-07-16T14:20:06.141Z,63.41
2017-07-16T14:22:35.219Z,63.22
2017-07-16T14:25:04.306Z,62.32
2017-07-16T14:27:33.397Z,62.20
2017-07-16T14:30:02.515Z,62.00
2017-07-16T14:32:31.581Z,62.54
2017-07-16T14:35:00.692Z,63.14
2017-07-16T14:37:29.765Z,63.78
2017-07-16T14:39:58.809Z,63.80
2017-07-16T14:42:27.898Z,64.27
2017-07-16T14:44:57.732Z,64.00
2017-07-16T14:47:26.886Z,64.37
2017-07-16T14:49:56.769Z,64.41
2017-07-16T14:52:25.869Z,64.82
2017-07-16T14:54:54.944Z,65.49
2017-07-16T14:57:23.985Z,65.42
2017-07-16T14:59:53.098Z,65.08
2017-07-16T15:02:22.154Z,65.72
2017-07-16T15:04:51.266Z,66.33
2017-07-16T15:07:20.327Z,66.44
2017-07-16T15:09:49.381Z,66.21
2017-07-16T15:12:18.465Z,66.10
2017-07-16T15:14:48.289Z,66.66
2017-07-16T15:17:17.364Z,66.90
2017-07-16T15:19:47.197Z,66.93
2017-07-16T15:22:17.072Z,66.78
2017-07-16T15:24:46.172Z,66.19
2017-07-16T15:27:15.235Z,66.56
2017-07-16T15:29:44.316Z,66.87
2017-07-16T15:32:13.579Z,67.15
2017-07-16T15:34:42.653Z,67.17
2017-07-16T15:37:11.775Z,66.71
2017-07-16T15:39:40.836Z,66.62
2017-07-16T15:42:09.934Z,66.45
2017-07-16T15:44:39.021Z,66.44
2017-07-16T15:47:08.792Z,66.40
2017-07-16T15:49:38.600Z,66.16
2017-07-16T15:52:08.610Z,66.20
2017-07-16T15:54:38.441Z,65.67
2017-07-16T15:57:07.513Z,65.64
2017-07-16T15:59:37.356Z,66.07
2017-07-16T16:02:06.445Z,65.01
2017-07-16T16:04:35.530Z,65.38
2017-07-16T16:07:05.354Z,65.47
2017-07-16T16:09:34.451Z,66.02
2017-07-16T16:12:03.517Z,65.60
2017-07-16T16:14:33.372Z,65.62
2017-07-16T16:17:02.439Z,66.00
2017-07-16T16:19:33.049Z,66.76
2017-07-16T16:22:02.115Z,66.16
2017-07-16T16:24:31.181Z,66.12
2017-07-16T16:27:00.276Z,66.21
2017-07-16T16:29:29.367Z,66.37
2017-07-16T16:31:58.468Z,66.84
2017-07-16T16:34:27.515Z,66.61
2017-07-16T16:36:56.594Z,66.71
2017-07-16T16:39:25.654Z,66.89
2017-07-16T16:41:54.767Z,66.85
2017-07-16T16:44:23.891Z,66.49
2017-07-16T16:46:52.940Z,67.24
2017-07-16T16:49:22.024Z,67.44
2017-07-16T16:51:51.156Z,67.50
2017-07-16T16:54:20.226Z,67.64
2017-07-16T16:56:49.296Z,67.57
2017-07-16T16:59:19.126Z,67.87
2017-07-16T17:01:48.201Z,67.64
2017-07-16T17:04:18.075Z,67.08
2017-07-16T17:06:47.121Z,66.63
2017-07-16T17:09:16.208Z,66.52
2017-07-16T17:11:46.053Z,66.12
2017-07-16T17:14:15.128Z,66.68
2017-07-16T17:16:44.224Z,66.07
2017-07-16T17:19:14.083Z,66.20
2017-07-16T17:21:43.156Z,66.21
2017-07-16T17:24:12.276Z,66.22
2017-07-16T17:26:41.355Z,66.00
2017-07-16T17:29:10.466Z,65.93
2017-07-16T17:31:40.365Z,66.16
2017-07-16T17:34:09.460Z,66.47
2017-07-16T18:45:27.733Z,72.50
2017-07-16T18:47:56.793Z,74.11
2017-07-16T18:50:25.889Z,74.73
2017-07-16T18:52:54.960Z,75.12
2017-07-16T18:55:24.860Z,75.72
2017-07-16T18:57:54.950Z,75.99
2017-07-16T19:00:24.091Z,76.31
2017-07-16T19:02:53.905Z,76.92
2017-07-16T19:05:22.991Z,76.81
2017-07-16T19:07:52.910Z,76.69
2017-07-16T19:10:22.078Z,77.12
2017-07-16T19:12:52.070Z,77.30
2017-07-16T19:15:21.253Z,77.25
2017-07-16T19:17:51.312Z,77.38
2017-07-16T19:20:20.626Z,77.26
2017-07-16T19:22:49.724Z,77.38
2017-07-16T19:25:19.111Z,77.42
2017-07-16T19:27:48.295Z,77.88
2017-07-16T19:30:17.399Z,78.11
2017-07-16T19:32:46.614Z,78.32
2017-07-16T19:35:15.780Z,78.54
2017-07-16T19:37:44.940Z,78.40
2017-07-16T19:40:14.109Z,78.30
2017-07-16T19:42:43.254Z,78.60
2017-07-16T19:45:12.491Z,78.84
2017-07-16T19:47:41.569Z,79.13
2017-07-16T19:50:10.740Z,79.14
2017-07-16T19:52:39.994Z,79.19
2017-07-16T19:55:09.183Z,78.96
2017-07-16T19:57:38.263Z,80.09
2017-07-16T20:00:07.416Z,79.54
2017-07-16T20:02:36.538Z,79.27
2017-07-16T20:05:05.683Z,79.15
2017-07-16T20:07:34.793Z,79.02
2017-07-16T20:10:03.871Z,79.08
2017-07-16T20:12:32.942Z,78.76
2017-07-16T20:15:02.013Z,78.69
2017-07-16T20:17:31.101Z,78.64
2017-07-16T20:20:00.147Z,78.44
2017-07-16T20:22:29.206Z,78.48
2017-07-16T20:24:58.279Z,78.33
2017-07-16T20:27:27.347Z,78.09
2017-07-16T20:29:56.425Z,78.20
2017-07-16T20:32:25.523Z,77.99
2017-07-16T20:34:54.575Z,77.99
2017-07-16T20:37:23.642Z,78.21
2017-07-16T20:39:52.758Z,77.98
2017-07-16T20:42:21.854Z,77.97
2017-07-16T20:44:50.912Z,77.81
2017-07-16T20:47:19.999Z,77.89
2017-07-16T20:49:49.071Z,78.10
2017-07-16T20:52:18.136Z,78.10
2017-07-16T20:54:47.222Z,78.02
2017-07-16T20:57:16.305Z,77.95
2017-07-16T20:59:45.398Z,78.33
2017-07-16T21:02:14.468Z,78.35
2017-07-16T21:04:43.542Z,78.22
2017-07-16T21:07:12.759Z,78.11
2017-07-16T21:09:41.829Z,78.32
2017-07-16T21:12:10.895Z,78.64
2017-07-16T21:14:39.986Z,78.51
2017-07-16T21:17:09.106Z,78.45
2017-07-16T21:19:38.157Z,78.45
2017-07-16T21:22:07.272Z,78.55
2017-07-16T21:24:36.349Z,78.49
2017-07-16T21:27:05.406Z,78.21
2017-07-16T21:29:34.479Z,78.01
2017-07-16T21:32:03.612Z,78.05
2017-07-16T21:34:32.737Z,78.11
2017-07-16T21:37:01.812Z,78.33
2017-07-16T21:39:31.119Z,78.46
2017-07-16T21:42:00.265Z,78.29
2017-07-16T21:44:29.346Z,78.65
2017-07-16T21:46:58.410Z,78.61
2017-07-16T21:49:27.499Z,78.77
2017-07-16T21:51:56.564Z,78.39
2017-07-16T21:54:25.636Z,78.27
2017-07-16T21:56:54.713Z,78.25
2017-07-16T21:59:23.778Z,78.09
2017-07-16T22:01:52.855Z,78.26
2017-07-16T22:04:21.965Z,78.12
2017-07-16T22:06:51.016Z,78.06
2017-07-16T22:09:20.110Z,78.45
2017-07-16T22:11:49.174Z,78.20
2017-07-16T22:14:18.225Z,77.95
2017-07-16T22:16:47.317Z,78.29
2017-07-16T22:19:16.495Z,78.24
2017-07-16T22:21:45.582Z,77.96
2017-07-16T22:24:14.693Z,78.16
2017-07-16T22:26:43.729Z,78.05
2017-07-16T22:29:12.999Z,78.11
2017-07-16T22:31:42.057Z,78.33
2017-07-16T22:34:11.137Z,78.66
2017-07-16T22:36:40.230Z,78.48
2017-07-16T22:39:09.321Z,78.78
2017-07-16T22:41:38.412Z,78.81
2017-07-16T22:44:07.742Z,78.63
2017-07-16T22:46:36.789Z,78.87
2017-07-16T22:49:05.852Z,78.92
2017-07-16T22:51:34.904Z,78.55
2017-07-16T22:54:03.989Z,78.60
2017-07-16T22:56:33.060Z,78.42
2017-07-16T22:59:02.131Z,78.72
2017-07-16T23:01:31.189Z,78.57
2017-07-16T23:04:00.261Z,78.61
2017-07-16T23:06:29.355Z,78.86
2017-07-16T23:08:58.433Z,78.61
2017-07-16T23:11:27.524Z,78.69
2017-07-16T23:13:56.608Z,78.60
2017-07-16T23:16:25.808Z,78.81
2017-07-16T23:18:54.885Z,78.70
2017-07-16T23:21:23.940Z,78.54
2017-07-16T23:23:53.023Z,78.47
2017-07-16T23:26:22.101Z,78.67
2017-07-16T23:28:51.140Z,78.57
2017-07-16T23:31:20.205Z,78.70
2017-07-16T23:33:49.273Z,78.77
2017-07-16T23:36:18.343Z,78.61
2017-07-16T23:38:47.405Z,78.76
2017-07-16T23:41:16.485Z,78.58
2017-07-16T23:43:45.545Z,78.80
2017-07-16T23:46:14.628Z,78.88
2017-07-16T23:48:43.690Z,78.85
2017-07-16T23:51:12.792Z,78.58
2017-07-16T23:53:41.851Z,78.65
2017-07-16T23:56:10.989Z,78.40
2017-07-16T23:58:40.015Z,78.28
